Time;durP1;ratioP1;P1;durP2;ratioP2;P2;SDS_P1;SDS_P2;PMS_P1;PMS_P2;Temp;Humidity;BMP_temperature;BMP_pressure;BME280_temperature;BME280_humidity;BME280_pressure;Samples;Min_cycle;Max_cycle;Signal;HPM_P1;HPM_P2
2021/12/30 00:00:46;;;;;;;0.88;0.50;;;;;;;11.03;100.00;95670.19;5050127;28;24451;-72
2021/12/30 00:03:15;;;;;;;4.57;0.77;;;;;;;11.01;100.00;95666.88;5050362;28;21326;-72
2021/12/30 00:05:42;;;;;;;1.58;0.60;;;;;;;11.03;100.00;95676.22;5050116;28;20771;-72
2021/12/30 00:08:10;;;;;;;0.85;0.40;;;;;;;11.01;100.00;95687.59;5050353;28;20854;-72
2021/12/30 00:10:37;;;;;;;4.82;0.95;;;;;;;11.06;100.00;95682.97;5050040;28;24817;-71
2021/12/30 00:13:05;;;;;;;1.48;0.70;;;;;;;11.12;100.00;95680.81;5050142;28;20809;-74
2021/12/30 00:15:31;;;;;;;2.47;0.40;;;;;;;11.06;100.00;95693.34;5049631;28;20755;-72
2021/12/30 00:17:58;;;;;;;1.88;0.68;;;;;;;11.06;100.00;95685.56;5050286;28;20813;-74
2021/12/30 00:20:27;;;;;;;1.90;0.70;;;;;;;11.01;100.00;95691.06;5049933;28;24501;-72
2021/12/30 00:22:54;;;;;;;1.65;0.50;;;;;;;11.00;100.00;95696.31;5053508;28;24851;-72
2021/12/30 00:25:20;;;;;;;4.95;0.60;;;;;;;11.03;100.00;95707.31;5053461;28;24497;-76
2021/12/30 00:27:47;;;;;;;1.20;0.60;;;;;;;10.93;100.00;95714.00;5053615;28;24411;-72
2021/12/30 00:30:14;;;;;;;0.70;0.40;;;;;;;10.89;100.00;95715.16;5053333;28;24469;-73
2021/12/30 00:32:41;;;;;;;1.52;0.60;;;;;;;11.05;100.00;95718.41;5053099;28;24450;-72
2021/12/30 00:35:09;;;;;;;1.95;0.63;;;;;;;11.01;100.00;95735.09;5053004;28;24415;-73
2021/12/30 00:37:37;;;;;;;1.20;0.50;;;;;;;10.95;100.00;95745.84;5053057;28;20775;-73
2021/12/30 00:40:04;;;;;;;0.95;0.47;;;;;;;11.00;100.00;95751.56;5053141;28;24439;-73
2021/12/30 00:42:31;;;;;;;0.97;0.40;;;;;;;11.06;100.00;95747.75;5052935;28;20774;-73
2021/12/30 00:44:57;;;;;;;2.20;0.47;;;;;;;11.05;100.00;95748.66;5052857;28;24450;-73
2021/12/30 00:47:24;;;;;;;1.20;0.40;;;;;;;11.01;100.00;95744.63;5052834;28;21173;-73
2021/12/30 00:49:52;;;;;;;1.10;0.50;;;;;;;11.07;100.00;95752.00;5052962;28;21284;-73
2021/12/30 00:52:18;;;;;;;1.07;0.43;;;;;;;11.08;100.00;95764.84;5053201;28;20815;-73
2021/12/30 00:54:46;;;;;;;1.63;0.50;;;;;;;11.07;100.00;95763.19;5052831;28;24419;-73
2021/12/30 00:57:12;;;;;;;2.17;0.70;;;;;;;10.99;100.00;95752.50;5052564;28;20805;-73
2021/12/30 00:59:39;;;;;;;1.07;0.60;;;;;;;11.13;100.00;95754.22;5052724;28;24439;-73
2021/12/30 01:02:05;;;;;;;1.48;0.77;;;;;;;11.06;100.00;95768.50;5052589;28;21400;-72
2021/12/30 01:04:32;;;;;;;1.75;0.50;;;;;;;11.00;100.00;95769.69;5052890;28;24765;-73
2021/12/30 01:06:58;;;;;;;1.30;0.63;;;;;;;11.05;100.00;95766.81;5052398;28;24953;-73
2021/12/30 01:09:25;;;;;;;1.63;0.60;;;;;;;11.08;100.00;95772.63;5052513;28;24419;-73
2021/12/30 01:11:54;;;;;;;1.92;0.88;;;;;;;11.08;100.00;95775.22;5052471;28;24431;-73
2021/12/30 01:14:24;;;;;;;3.00;0.98;;;;;;;11.01;100.00;95767.94;5052462;28;24481;-73
2021/12/30 01:16:56;;;;;;;1.77;0.68;;;;;;;11.06;100.00;95773.69;5052144;28;20750;-73
2021/12/30 01:19:42;;;;;;;1.33;0.70;;;;;;;11.04;100.00;95778.94;5052761;28;20830;-73
2021/12/30 01:22:09;;;;;;;2.08;0.90;;;;;;;10.94;100.00;95790.84;5052540;28;24519;-72
2021/12/30 01:24:36;;;;;;;3.35;1.00;;;;;;;10.90;100.00;95797.13;5052481;28;24427;-73
2021/12/30 01:27:04;;;;;;;5.18;0.88;;;;;;;10.92;100.00;95802.22;5052366;28;20825;-72
2021/12/30 01:29:31;;;;;;;1.80;0.90;;;;;;;10.82;100.00;95800.19;5052615;28;21208;-73
2021/12/30 01:31:57;;;;;;;2.05;0.70;;;;;;;10.80;100.00;95794.31;5052091;28;24859;-72
2021/12/30 01:34:26;;;;;;;2.40;0.63;;;;;;;10.83;100.00;95788.94;5051409;28;24419;-72
2021/12/30 01:36:53;;;;;;;2.25;0.70;;;;;;;10.89;100.00;95804.06;5052246;28;20854;-72
2021/12/30 01:39:22;;;;;;;1.92;0.90;;;;;;;10.81;100.00;95801.13;5052215;28;24427;-73
2021/12/30 01:41:49;;;;;;;2.28;0.68;;;;;;;10.74;100.00;95797.28;5051999;28;20832;-74
2021/12/30 01:44:17;;;;;;;1.08;0.60;;;;;;;10.74;100.00;95807.63;5052289;28;20812;-72
2021/12/30 01:46:46;;;;;;;1.48;0.75;;;;;;;10.86;100.00;95808.63;5051885;28;24419;-72
2021/12/30 01:49:14;;;;;;;0.85;0.50;;;;;;;10.88;100.00;95809.38;5052060;28;24423;-73
2021/12/30 01:51:43;;;;;;;1.40;0.57;;;;;;;10.85;100.00;95807.78;5051821;28;20797;-72
2021/12/30 01:54:10;;;;;;;1.80;0.43;;;;;;;10.90;100.00;95818.72;5051678;28;21156;-72
2021/12/30 01:56:37;;;;;;;0.90;0.50;;;;;;;10.84;100.00;95829.44;5051265;28;24963;-72
2021/12/30 01:59:04;;;;;;;1.23;0.47;;;;;;;10.93;100.00;95825.44;5051747;28;24481;-72
2021/12/30 02:01:32;;;;;;;0.95;0.40;;;;;;;10.89;100.00;95831.75;5051816;28;21153;-72
2021/12/30 02:03:59;;;;;;;1.40;0.63;;;;;;;10.98;100.00;95840.72;5051643;28;24423;-72
2021/12/30 02:06:26;;;;;;;2.13;0.52;;;;;;;10.84;100.00;95844.16;5051280;28;24419;-72
2021/12/30 02:08:53;;;;;;;1.52;0.57;;;;;;;10.95;100.00;95846.09;5051637;28;24426;-72
2021/12/30 02:11:20;;;;;;;0.97;0.50;;;;;;;11.00;100.00;95857.00;5051333;28;24948;-72
2021/12/30 02:13:49;;;;;;;2.95;0.60;;;;;;;10.98;100.00;95853.69;5051609;28;24426;-72
2021/12/30 02:16:17;;;;;;;2.20;0.50;;;;;;;11.07;100.00;95860.84;5051207;28;24941;-72
2021/12/30 02:18:45;;;;;;;0.52;0.30;;;;;;;11.03;100.00;95864.56;5051583;28;24514;-74
2021/12/30 02:21:13;;;;;;;0.98;0.50;;;;;;;11.15;100.00;95856.00;5051476;28;20787;-73
2021/12/30 02:23:40;;;;;;;2.13;0.60;;;;;;;11.25;100.00;95866.63;5051438;28;20849;-73
2021/12/30 02:26:09;;;;;;;1.20;0.43;;;;;;;11.21;100.00;95870.34;5050932;28;24414;-73
2021/12/30 02:28:37;;;;;;;0.73;0.40;;;;;;;11.18;100.00;95863.59;5051291;28;20759;-72
2021/12/30 02:31:08;;;;;;;1.40;0.65;;;;;;;11.17;100.00;95864.53;5051148;28;24419;-72
2021/12/30 02:33:35;;;;;;;1.17;0.57;;;;;;;11.11;100.00;95873.50;5051139;28;20845;-72
2021/12/30 02:36:03;;;;;;;0.98;0.40;;;;;;;11.05;100.00;95873.06;5050583;28;24418;-72
2021/12/30 02:38:31;;;;;;;1.17;0.50;;;;;;;11.04;100.00;95876.59;5051156;28;20796;-72
2021/12/30 02:41:00;;;;;;;0.88;0.50;;;;;;;11.19;100.00;95862.66;5050773;28;24462;-72
2021/12/30 02:43:28;;;;;;;1.30;0.50;;;;;;;11.17;100.00;95884.44;5050702;28;24941;-72
2021/12/30 02:45:57;;;;;;;1.48;0.40;;;;;;;11.13;100.00;95883.81;5050687;28;24427;-73
2021/12/30 02:48:25;;;;;;;1.27;0.40;;;;;;;11.12;100.00;95882.13;5051253;28;20850;-72
2021/12/30 02:50:55;;;;;;;1.50;0.57;;;;;;;11.12;100.00;95887.31;5050891;28;24500;-72
2021/12/30 02:53:21;;;;;;;1.65;0.50;;;;;;;11.01;100.00;95885.41;5050905;28;20721;-73
2021/12/30 02:55:50;;;;;;;0.65;0.30;;;;;;;11.01;100.00;95881.97;5049834;28;24991;-74
2021/12/30 02:58:18;;;;;;;0.93;0.40;;;;;;;10.96;100.00;95886.63;5050666;28;20773;-73
2021/12/30 03:00:50;;;;;;;0.90;0.40;;;;;;;10.91;100.00;95884.31;5050184;28;24474;-72
2021/12/30 03:03:18;;;;;;;0.85;0.30;;;;;;;10.98;100.00;95883.00;5050967;28;20891;-72
2021/12/30 03:05:45;;;;;;;1.20;0.40;;;;;;;11.13;100.00;95879.44;5050430;28;24477;-72
2021/12/30 03:08:11;;;;;;;0.60;0.30;;;;;;;11.08;100.00;95886.66;5050392;28;24829;-72
2021/12/30 03:10:38;;;;;;;0.57;0.20;;;;;;;11.13;100.00;95883.81;5050605;28;24439;-72
2021/12/30 03:13:10;;;;;;;1.05;0.30;;;;;;;11.15;100.00;95881.94;5050434;28;25003;-72
2021/12/30 03:15:37;;;;;;;2.00;0.20;;;;;;;11.12;100.00;95888.16;5050281;28;20723;-72
2021/12/30 03:18:04;;;;;;;1.13;0.30;;;;;;;11.13;100.00;95904.53;5050735;28;24423;-72
2021/12/30 03:20:32;;;;;;;2.30;0.30;;;;;;;11.04;100.00;95905.94;5050371;28;24443;-72
2021/12/30 03:22:59;;;;;;;0.73;0.40;;;;;;;10.94;100.00;95914.38;5050631;28;20805;-72
2021/12/30 03:25:25;;;;;;;1.52;0.60;;;;;;;10.81;100.00;95914.31;5050103;28;24835;-73
2021/12/30 03:27:52;;;;;;;0.85;0.40;;;;;;;10.75;100.00;95914.66;5050083;28;25043;-73
2021/12/30 03:30:20;;;;;;;0.77;0.30;;;;;;;10.69;100.00;95923.66;5049229;28;24432;-73
2021/12/30 03:32:47;;;;;;;0.95;0.65;;;;;;;10.65;100.00;95927.38;5050150;28;24481;-73
2021/12/30 03:35:14;;;;;;;1.20;0.70;;;;;;;10.60;100.00;95925.03;5050348;28;24542;-72
2021/12/30 03:37:42;;;;;;;0.65;0.52;;;;;;;10.56;100.00;95933.09;5050063;28;24419;-72
2021/12/30 03:40:12;;;;;;;0.60;0.35;;;;;;;10.54;100.00;95940.13;5050197;28;24411;-72
2021/12/30 03:42:38;;;;;;;1.40;0.47;;;;;;;10.50;100.00;95943.84;5050091;28;24439;-73
2021/12/30 03:45:07;;;;;;;1.58;0.80;;;;;;;10.49;100.00;95949.91;5050239;28;20766;-73
2021/12/30 03:47:37;;;;;;;1.02;0.55;;;;;;;10.45;100.00;95938.91;5049468;28;24492;-73
2021/12/30 03:50:05;;;;;;;1.27;0.50;;;;;;;10.44;100.00;95934.66;5049270;28;24435;-72
2021/12/30 03:52:32;;;;;;;0.80;0.20;;;;;;;10.44;100.00;95934.66;5049922;28;24467;-72
2021/12/30 03:54:58;;;;;;;1.20;0.30;;;;;;;10.39;100.00;95942.72;5049972;28;24415;-72
2021/12/30 03:57:25;;;;;;;1.00;0.20;;;;;;;10.36;100.00;95947.22;5052723;28;24999;-72
2021/12/30 03:59:52;;;;;;;1.83;0.28;;;;;;;10.32;100.00;95946.56;5053936;28;24505;-72
2021/12/30 04:02:18;;;;;;;1.10;0.30;;;;;;;10.32;100.00;95954.34;5053691;28;24486;-72
2021/12/30 04:04:46;;;;;;;0.80;0.20;;;;;;;10.28;100.00;95957.22;5053811;28;24470;-73
2021/12/30 04:07:13;;;;;;;0.40;0.30;;;;;;;10.25;100.00;95959.94;5053414;28;24425;-73
2021/12/30 04:09:39;;;;;;;0.40;0.20;;;;;;;10.24;100.00;95963.47;5053552;28;24427;-73
2021/12/30 04:12:07;;;;;;;0.98;0.40;;;;;;;10.19;100.00;95963.72;5053899;28;24430;-73
2021/12/30 04:14:33;;;;;;;0.40;0.20;;;;;;;10.18;100.00;95964.63;5053703;28;24427;-72
2021/12/30 04:17:00;;;;;;;0.63;0.30;;;;;;;10.21;100.00;95963.63;5053461;28;24427;-72
2021/12/30 04:19:26;;;;;;;0.85;0.32;;;;;;;10.19;100.00;95976.66;5053592;28;24948;-72
2021/12/30 04:21:56;;;;;;;0.68;0.28;;;;;;;10.13;100.00;95975.25;5053217;28;24525;-73
2021/12/30 04:24:23;;;;;;;0.88;0.40;;;;;;;10.14;100.00;95981.25;5053928;28;24445;-73
2021/12/30 04:26:50;;;;;;;1.30;0.47;;;;;;;10.10;100.00;95975.44;5053292;28;24419;-73
2021/12/30 04:29:17;;;;;;;0.20;0.10;;;;;;;10.11;100.00;95979.69;5053212;28;24430;-72
2021/12/30 04:31:44;;;;;;;0.20;0.10;;;;;;;10.12;100.00;95983.09;5053294;28;24449;-72
2021/12/30 04:34:10;;;;;;;0.40;0.20;;;;;;;10.08;100.00;95984.19;5053472;28;24442;-72
2021/12/30 04:36:37;;;;;;;0.60;0.30;;;;;;;10.07;100.00;95985.97;5052929;28;24812;-72
2021/12/30 04:39:05;;;;;;;0.50;0.20;;;;;;;10.04;100.00;95990.47;5053119;28;24953;-72
2021/12/30 04:41:32;;;;;;;0.93;0.20;;;;;;;10.04;100.00;95995.66;5052883;28;24454;-73
2021/12/30 04:43:58;;;;;;;0.70;0.40;;;;;;;10.02;100.00;95994.91;5053169;28;24484;-73
2021/12/30 04:46:25;;;;;;;0.70;0.10;;;;;;;10.03;100.00;96001.75;5052821;28;24473;-73
2021/12/30 04:48:51;;;;;;;0.77;0.20;;;;;;;9.99;100.00;96010.59;5053072;28;24422;-73
2021/12/30 04:51:18;;;;;;;1.25;0.20;;;;;;;9.97;100.00;96015.03;5052659;28;24790;-73
2021/12/30 04:53:47;;;;;;;0.20;0.20;;;;;;;9.98;100.00;96006.38;5052907;28;24959;-73
2021/12/30 04:56:15;;;;;;;0.20;0.10;;;;;;;9.97;100.00;96007.25;5052733;28;20800;-72
2021/12/30 04:58:41;;;;;;;0.65;0.30;;;;;;;9.92;100.00;96013.53;5052902;28;24411;-74
2021/12/30 05:01:08;;;;;;;0.43;0.13;;;;;;;9.91;100.00;96008.47;5052680;28;24451;-72
2021/12/30 05:03:34;;;;;;;0.77;0.35;;;;;;;9.88;100.00;96012.03;5052753;28;24824;-72
2021/12/30 05:06:01;;;;;;;1.60;0.37;;;;;;;9.87;100.00;96012.13;5052199;28;24969;-72
2021/12/30 05:08:28;;;;;;;0.28;0.20;;;;;;;9.85;100.00;96014.78;5052313;28;24979;-72
2021/12/30 05:10:55;;;;;;;0.43;0.20;;;;;;;9.85;100.00;96026.91;5053001;28;20866;-72
2021/12/30 05:13:22;;;;;;;0.50;0.20;;;;;;;9.84;100.00;96020.06;5052881;28;24794;-72
2021/12/30 05:15:49;;;;;;;0.52;0.17;;;;;;;9.85;100.00;96025.16;5052445;28;21322;-72
2021/12/30 05:18:18;;;;;;;0.47;0.10;;;;;;;9.86;100.00;96036.31;5052758;28;24424;-72
2021/12/30 05:20:45;;;;;;;0.60;0.20;;;;;;;9.85;100.00;96030.31;5052297;28;20771;-72
2021/12/30 05:23:12;;;;;;;0.50;0.10;;;;;;;9.83;100.00;96037.34;5052496;28;24473;-72
2021/12/30 05:25:39;;;;;;;0.70;0.10;;;;;;;9.84;100.00;96033.84;5052254;28;20755;-72
2021/12/30 05:28:06;;;;;;;0.10;0.10;;;;;;;9.81;100.00;96034.00;5052584;28;20755;-72
2021/12/30 05:30:34;;;;;;;0.20;0.10;;;;;;;9.84;100.00;96030.41;5052180;28;24446;-73
2021/12/30 05:33:00;;;;;;;0.55;0.28;;;;;;;9.84;100.00;96036.41;5052595;28;21342;-73
2021/12/30 05:35:27;;;;;;;0.30;0.10;;;;;;;9.83;100.00;96039.94;5052015;28;24422;-73
2021/12/30 05:37:53;;;;;;;0.03;0.03;;;;;;;9.85;100.00;96037.25;5051971;28;24485;-73
2021/12/30 05:40:21;;;;;;;0.10;0.10;;;;;;;9.85;100.00;96038.06;5051925;28;24519;-72
2021/12/30 05:42:48;;;;;;;0.22;0.10;;;;;;;9.85;100.00;96037.25;5052131;28;20816;-72
2021/12/30 05:45:16;;;;;;;0.85;0.22;;;;;;;9.83;100.00;96039.09;5051830;28;24998;-72
2021/12/30 05:47:46;;;;;;;0.68;0.10;;;;;;;9.84;100.00;96043.34;5052095;28;20767;-72
2021/12/30 05:50:15;;;;;;;0.20;0.10;;;;;;;9.85;100.00;96050.19;5052049;28;24550;-72
2021/12/30 05:52:42;;;;;;;0.20;0.10;;;;;;;9.83;100.00;96050.28;5052110;28;20800;-72
2021/12/30 05:55:09;;;;;;;0.93;0.20;;;;;;;9.84;100.00;96054.53;5051991;28;24446;-72
2021/12/30 05:57:35;;;;;;;0.20;0.20;;;;;;;9.86;100.00;96060.47;5051544;28;24426;-71
2021/12/30 06:00:03;;;;;;;0.20;0.10;;;;;;;9.88;100.00;96061.19;5051502;28;24956;-72
2021/12/30 06:02:30;;;;;;;0.50;0.20;;;;;;;9.89;100.00;96059.44;5051644;28;24511;-72
2021/12/30 06:04:57;;;;;;;0.30;0.20;;;;;;;9.90;100.00;96058.50;5051590;28;24578;-72
2021/12/30 06:07:24;;;;;;;1.50;0.20;;;;;;;9.85;100.00;96055.34;5051433;28;24877;-72
2021/12/30 06:09:50;;;;;;;0.57;0.10;;;;;;;9.87;100.00;96069.06;5051745;28;20759;-75
2021/12/30 06:12:17;;;;;;;0.30;0.20;;;;;;;9.86;100.00;96065.63;5051367;28;21388;-72
2021/12/30 06:14:43;;;;;;;0.67;0.10;;;;;;;9.87;100.00;96080.22;5051214;28;24418;-72
2021/12/30 06:17:11;;;;;;;0.60;0.20;;;;;;;9.89;100.00;96072.38;5051121;28;24804;-72
2021/12/30 06:19:37;;;;;;;0.17;0.10;;;;;;;9.89;100.00;96080.13;5050984;28;20877;-72
2021/12/30 06:22:06;;;;;;;0.10;0.10;;;;;;;9.89;100.00;96080.13;5050565;28;24459;-72
2021/12/30 06:24:33;;;;;;;0.90;0.20;;;;;;;9.86;100.00;96077.72;5051423;28;20806;-72
2021/12/30 06:26:59;;;;;;;0.43;0.10;;;;;;;9.85;100.00;96086.41;5050784;28;20771;-72
2021/12/30 06:29:25;;;;;;;0.40;0.10;;;;;;;9.84;100.00;96085.56;5051368;28;20775;-72
2021/12/30 06:31:52;;;;;;;0.40;0.20;;;;;;;9.85;100.00;96095.00;5051244;28;20778;-72
2021/12/30 06:34:18;;;;;;;0.70;0.60;;;;;;;9.87;100.00;96092.34;5051279;28;20755;-72
2021/12/30 06:36:45;;;;;;;1.00;0.70;;;;;;;9.85;100.00;96094.16;5050704;28;24423;-73
2021/12/30 06:39:13;;;;;;;1.23;0.80;;;;;;;9.85;100.00;96097.56;5050916;28;24422;-73
2021/12/30 06:41:39;;;;;;;0.90;0.50;;;;;;;9.87;100.00;96100.09;5050610;28;21374;-73
2021/12/30 06:44:05;;;;;;;0.90;0.70;;;;;;;9.88;100.00;96099.16;5050917;28;24473;-74
2021/12/30 06:46:32;;;;;;;1.55;0.57;;;;;;;9.86;100.00;96108.75;5046868;28;25028;-74
2021/12/30 06:48:58;;;;;;;0.85;0.40;;;;;;;9.90;100.00;96111.13;5046063;28;24996;-73
2021/12/30 06:51:27;;;;;;;1.30;0.40;;;;;;;9.89;100.00;96106.84;5046770;28;24439;-74
2021/12/30 06:53:55;;;;;;;1.20;0.90;;;;;;;9.90;100.00;96113.69;5050987;28;24426;-72
2021/12/30 06:56:24;;;;;;;1.80;0.67;;;;;;;9.90;100.00;96124.06;5050501;28;20903;-73
2021/12/30 06:58:51;;;;;;;1.25;0.52;;;;;;;9.91;100.00;96119.72;5045308;28;20770;-73
2021/12/30 07:01:17;;;;;;;0.77;0.40;;;;;;;9.91;100.00;96128.28;5050210;28;24836;-73
2021/12/30 07:03:44;;;;;;;0.75;0.43;;;;;;;9.92;100.00;96129.97;5050511;28;24418;-73
2021/12/30 07:06:10;;;;;;;0.20;0.10;;;;;;;9.92;100.00;96132.53;5050061;28;24465;-73
2021/12/30 07:08:37;;;;;;;0.60;0.30;;;;;;;9.93;100.00;96141.97;5050462;28;24782;-73
2021/12/30 07:11:03;;;;;;;0.55;0.30;;;;;;;9.93;100.00;96147.16;5050355;28;24433;-73
2021/12/30 07:13:31;;;;;;;2.13;0.90;;;;;;;9.92;100.00;96142.91;5050566;28;24820;-73
2021/12/30 07:15:58;;;;;;;0.60;0.60;;;;;;;9.93;100.00;96152.31;5050230;28;24469;-73
2021/12/30 07:18:24;;;;;;;0.35;0.30;;;;;;;9.92;100.00;96145.47;5050734;28;24497;-73
2021/12/30 07:20:51;;;;;;;0.40;0.22;;;;;;;9.92;100.00;96150.66;5050609;28;24828;-73
2021/12/30 07:23:17;;;;;;;0.63;0.30;;;;;;;9.92;100.00;96153.25;5050338;28;24435;-73
2021/12/30 07:25:43;;;;;;;0.32;0.20;;;;;;;9.92;100.00;96153.25;5050393;28;24415;-74
2021/12/30 07:28:10;;;;;;;0.40;0.20;;;;;;;9.92;100.00;96161.00;5050487;28;24450;-72
2021/12/30 07:30:38;;;;;;;0.30;0.20;;;;;;;9.91;100.00;96158.50;5050154;28;21350;-74
2021/12/30 07:33:06;;;;;;;0.70;0.32;;;;;;;9.94;100.00;96164.38;5054607;28;20758;-73
2021/12/30 07:35:34;;;;;;;1.73;0.40;;;;;;;9.93;100.00;96172.19;5054063;28;24944;-73
2021/12/30 07:38:01;;;;;;;0.50;0.30;;;;;;;9.96;100.00;96166.03;5054252;28;24514;-73
2021/12/30 07:40:27;;;;;;;0.70;0.40;;;;;;;9.96;100.00;96176.38;5053973;28;24431;-75
2021/12/30 07:42:54;;;;;;;0.30;0.30;;;;;;;9.98;100.00;96171.97;5054417;28;24443;-74
2021/12/30 07:45:20;;;;;;;0.30;0.20;;;;;;;9.99;100.00;96173.63;5054073;28;24411;-73
2021/12/30 07:47:49;;;;;;;0.10;0.10;;;;;;;10.03;100.00;96185.47;5054065;28;24422;-73
2021/12/30 07:50:15;;;;;;;0.40;0.20;;;;;;;10.04;100.00;96182.78;5054006;28;24959;-71
2021/12/30 07:52:42;;;;;;;0.10;0.10;;;;;;;10.09;100.00;96188.56;5053905;28;24430;-72
2021/12/30 07:55:10;;;;;;;2.22;0.30;;;;;;;10.11;100.00;96181.53;5053929;28;24785;-72
2021/12/30 07:57:38;;;;;;;0.30;0.10;;;;;;;10.13;100.00;96184.06;5053874;28;24415;-72
2021/12/30 08:00:08;;;;;;;0.40;0.17;;;;;;;10.18;100.00;96182.06;5053703;28;24450;-72
2021/12/30 08:02:35;;;;;;;0.40;0.22;;;;;;;10.17;100.00;96180.38;5053709;28;20783;-72
2021/12/30 08:05:04;;;;;;;0.53;0.30;;;;;;;10.23;100.00;96185.22;5053612;28;24412;-72
2021/12/30 08:07:30;;;;;;;0.80;0.30;;;;;;;10.22;100.00;96185.31;5053718;28;24522;-72
2021/12/30 08:09:57;;;;;;;2.20;0.70;;;;;;;10.19;100.00;96191.47;5053822;28;24430;-72
2021/12/30 08:12:23;;;;;;;0.47;0.27;;;;;;;10.21;100.00;96184.47;5053728;28;24514;-71
2021/12/30 08:14:49;;;;;;;0.35;0.30;;;;;;;10.22;100.00;96190.50;5053516;28;24465;-72
2021/12/30 08:17:16;;;;;;;1.45;0.30;;;;;;;10.21;100.00;96183.66;5053632;28;24469;-73
2021/12/30 08:19:43;;;;;;;0.45;0.20;;;;;;;10.19;100.00;96187.13;5053553;28;24419;-73
2021/12/30 08:22:11;;;;;;;0.65;0.30;;;;;;;10.21;100.00;96189.66;5053577;28;24452;-73
2021/12/30 08:24:38;;;;;;;0.60;0.30;;;;;;;10.21;100.00;96191.41;5053572;28;24415;-72
2021/12/30 08:27:04;;;;;;;1.20;0.40;;;;;;;10.22;100.00;96193.06;5053268;28;24428;-72
2021/12/30 08:29:31;;;;;;;0.65;0.30;;;;;;;10.25;100.00;96198.09;5053470;28;24427;-73
2021/12/30 08:31:58;;;;;;;0.65;0.25;;;;;;;10.29;100.00;96202.22;5053277;28;20861;-73
2021/12/30 08:34:24;;;;;;;0.22;0.22;;;;;;;10.31;100.00;96192.63;5053208;28;24419;-72
2021/12/30 08:36:52;;;;;;;0.40;0.40;;;;;;;10.33;100.00;96199.34;5053171;28;24485;-72
2021/12/30 08:39:20;;;;;;;0.82;0.60;;;;;;;10.34;100.00;96206.19;5053312;28;24426;-73
2021/12/30 08:41:46;;;;;;;2.35;0.70;;;;;;;10.36;100.00;96204.38;5052564;28;20763;-72
2021/12/30 08:44:13;;;;;;;1.30;0.55;;;;;;;10.38;100.00;96197.38;5053062;28;24415;-73
2021/12/30 08:46:39;;;;;;;0.50;0.32;;;;;;;10.40;100.00;96195.53;5052779;28;24480;-73
2021/12/30 08:49:06;;;;;;;0.60;0.40;;;;;;;10.47;100.00;96202.97;5052933;28;24473;-73
2021/12/30 08:51:32;;;;;;;0.30;0.27;;;;;;;10.50;100.00;96210.56;5053094;28;24503;-73
2021/12/30 08:53:59;;;;;;;2.10;0.38;;;;;;;10.52;100.00;96208.72;5053013;28;24435;-73
2021/12/30 08:56:26;;;;;;;0.75;0.40;;;;;;;10.64;100.00;96213.19;5052606;28;24465;-73
2021/12/30 08:58:53;;;;;;;0.30;0.30;;;;;;;10.74;100.00;96208.34;5052776;28;24944;-72
2021/12/30 09:01:19;;;;;;;1.67;0.50;;;;;;;10.74;100.00;96201.41;5052672;28;24430;-73
2021/12/30 09:03:46;;;;;;;5.63;0.50;;;;;;;10.76;100.00;96201.34;5052878;28;24580;-72
2021/12/30 09:06:12;;;;;;;1.60;0.40;;;;;;;10.84;100.00;96199.13;5052589;28;24821;-72
2021/12/30 09:08:39;;;;;;;0.80;0.43;;;;;;;10.85;100.00;96199.03;5052615;28;24996;-72
2021/12/30 09:11:05;;;;;;;0.90;0.40;;;;;;;10.92;100.00;96189.16;5052621;28;24957;-72
2021/12/30 09:13:33;;;;;;;0.70;0.40;;;;;;;11.01;100.00;96193.81;5052538;28;24789;-73
2021/12/30 09:16:01;;;;;;;1.30;0.60;;;;;;;11.14;100.00;96191.34;5052103;28;24430;-72
2021/12/30 09:18:27;;;;;;;1.10;0.60;;;;;;;11.31;100.00;96186.00;5052670;28;24477;-73
2021/12/30 09:20:54;;;;;;;1.70;0.55;;;;;;;11.41;100.00;96191.47;5052414;28;24569;-73
2021/12/30 09:23:21;;;;;;;0.23;0.20;;;;;;;11.56;100.00;96197.50;5052282;28;24443;-72
2021/12/30 09:25:47;;;;;;;1.08;0.45;;;;;;;11.72;100.00;96187.91;5052132;28;24419;-73
2021/12/30 09:28:14;;;;;;;0.80;0.27;;;;;;;11.73;100.00;96192.16;5052252;28;24505;-73
2021/12/30 09:30:45;;;;;;;0.80;0.17;;;;;;;11.82;100.00;96194.16;5052037;28;25831;-73
2021/12/30 09:33:15;;;;;;;0.20;0.10;;;;;;;11.83;100.00;96193.28;5052429;28;24429;-72
2021/12/30 09:35:42;;;;;;;0.50;0.20;;;;;;;11.90;100.00;96198.91;5051944;28;24426;-72
2021/12/30 09:38:08;;;;;;;0.10;0.10;;;;;;;11.98;100.00;96204.50;5052149;28;24422;-73
2021/12/30 09:40:35;;;;;;;1.42;0.30;;;;;;;12.03;100.00;96207.63;5052025;28;24430;-72
2021/12/30 09:43:04;;;;;;;0.30;0.10;;;;;;;12.10;100.00;96200.31;5051789;28;25007;-72
2021/12/30 09:45:31;;;;;;;0.60;0.20;;;;;;;12.20;100.00;96203.16;5051867;28;24426;-73
2021/12/30 09:48:03;;;;;;;2.92;0.22;;;;;;;12.28;100.00;96206.97;5051900;28;24991;-73
2021/12/30 09:50:32;;;;;;;0.40;0.10;;;;;;;12.29;100.00;96200.00;5051781;28;24941;-73
2021/12/30 09:53:00;;;;;;;0.30;0.20;;;;;;;12.22;100.00;96202.13;5051820;28;24411;-73
2021/12/30 09:55:27;;;;;;;0.20;0.15;;;;;;;12.15;100.00;96200.84;5050813;28;24465;-73
2021/12/30 09:57:54;;;;;;;0.20;0.10;;;;;;;12.17;100.00;96211.16;5051883;28;24422;-73
2021/12/30 10:00:21;;;;;;;0.80;0.20;;;;;;;12.26;100.00;96213.16;5051657;28;24485;-73
2021/12/30 10:02:48;;;;;;;0.43;0.20;;;;;;;12.31;100.00;96211.09;5051485;28;25037;-73
2021/12/30 10:05:18;;;;;;;0.40;0.30;;;;;;;12.35;100.00;96217.81;5051480;28;24415;-73
2021/12/30 10:07:45;;;;;;;0.60;0.40;;;;;;;12.41;100.00;96209.59;5051449;28;24422;-73
2021/12/30 10:10:29;;;;;;;1.20;0.30;;;;;;;12.47;100.00;96211.81;5051356;28;25014;-73
2021/12/30 10:12:56;;;;;;;0.30;0.20;;;;;;;12.52;100.00;96208.94;5051575;28;24519;-73
2021/12/30 10:15:25;;;;;;;0.50;0.50;;;;;;;12.49;100.00;96219.50;5051318;28;24426;-73
2021/12/30 10:17:56;;;;;;;0.57;0.20;;;;;;;12.49;100.00;96215.16;5051460;28;24820;-74
2021/12/30 10:20:27;;;;;;;0.30;0.20;;;;;;;12.59;100.00;96223.19;5051094;28;24953;-73
2021/12/30 10:22:55;;;;;;;1.35;0.28;;;;;;;12.69;100.00;96226.88;5051292;28;24446;-74
2021/12/30 10:25:30;;;;;;;0.30;0.20;;;;;;;12.73;100.00;96224.94;5051221;28;24430;-73
2021/12/30 10:28:18;;;;;;;0.20;0.13;;;;;;;12.73;100.00;96217.97;5051079;28;24995;-74
2021/12/30 10:30:44;;;;;;;0.38;0.10;;;;;;;12.82;100.00;96227.75;5050950;28;24432;-74
2021/12/30 10:33:12;;;;;;;0.25;0.20;;;;;;;12.86;100.00;96237.97;5050974;28;24411;-74
2021/12/30 10:35:40;;;;;;;0.20;0.10;;;;;;;12.92;100.00;96242.78;5050966;28;24458;-74
2021/12/30 10:38:11;;;;;;;0.32;0.10;;;;;;;12.92;100.00;96242.78;5051094;28;24429;-74
2021/12/30 10:40:41;;;;;;;0.33;0.23;;;;;;;12.98;100.00;96232.81;5050821;28;24521;-73
2021/12/30 10:43:27;;;;;;;0.47;0.13;;;;;;;13.06;100.00;96237.50;5051009;28;24494;-73
2021/12/30 10:46:12;;;;;;;0.10;0.10;;;;;;;12.98;100.00;96238.00;5050762;28;24507;-74
2021/12/30 10:48:57;;;;;;;0.15;0.10;;;;;;;12.91;100.00;96233.31;5050907;28;24423;-73
2021/12/30 10:51:38;;;;;;;0.20;0.20;;;;;;;12.90;100.00;96236.81;5050742;28;24458;-73
2021/12/30 10:54:15;;;;;;;0.10;0.10;;;;;;;12.91;100.00;96228.13;5050737;28;24423;-73
2021/12/30 10:56:43;;;;;;;0.30;0.03;;;;;;;12.97;100.00;96230.28;5050502;28;24415;-73
2021/12/30 10:59:18;;;;;;;0.10;0.10;;;;;;;13.01;100.00;96226.56;5050868;28;24503;-74
2021/12/30 11:01:47;;;;;;;0.25;0.10;;;;;;;12.96;100.00;96229.47;5050511;28;24957;-73
2021/12/30 11:04:15;;;;;;;0.22;0.20;;;;;;;12.96;100.00;96228.63;5050566;28;24435;-74
2021/12/30 11:06:43;;;;;;;0.10;0.10;;;;;;;12.95;100.00;96238.22;5050076;28;24991;-73
2021/12/30 11:09:16;;;;;;;0.10;0.10;;;;;;;12.90;100.00;96240.25;5050723;28;24423;-74
2021/12/30 11:11:48;;;;;;;0.00;0.00;;;;;;;12.87;100.00;96237.00;5050706;28;24812;-73
2021/12/30 11:14:17;;;;;;;0.80;0.05;;;;;;;12.92;100.00;96225.41;5050585;28;24533;-74
2021/12/30 11:17:09;;;;;;;0.10;0.10;;;;;;;13.07;100.00;96226.16;5050199;28;24454;-74
2021/12/30 11:19:39;;;;;;;0.95;0.28;;;;;;;13.11;100.00;96222.44;5050640;28;24415;-74
2021/12/30 11:22:10;;;;;;;0.40;0.10;;;;;;;13.20;100.00;96227.03;5050433;28;24434;-74
2021/12/30 11:24:37;;;;;;;0.30;0.20;;;;;;;13.11;100.00;96226.81;5050394;28;24505;-73
2021/12/30 11:27:05;;;;;;;0.60;0.10;;;;;;;13.15;100.00;96218.69;5049977;28;24474;-73
2021/12/30 11:29:35;;;;;;;0.10;0.10;;;;;;;13.18;100.00;96218.50;5050311;28;24517;-73